createdAt,value
2018-11-23T00:02:24.352Z,37.67
2018-11-23T00:05:28.623Z,40.03
2018-11-23T00:08:33.482Z,34.53
2018-11-23T00:11:38.125Z,36.45
2018-11-23T00:14:42.677Z,41.85
2018-11-23T00:17:47.139Z,40.60
2018-11-23T00:20:53.415Z,51.45
2018-11-23T00:23:58.038Z,42.30
2018-11-23T00:27:02.377Z,27.22
2018-11-23T00:30:10.031Z,32.05
2018-11-23T00:33:14.700Z,38.55
2018-11-23T00:36:19.223Z,31.65
2018-11-23T00:39:23.696Z,40.95
2018-11-23T00:42:28.202Z,39.55
2018-11-23T00:45:32.629Z,37.65
2018-11-23T00:48:37.860Z,33.15
2018-11-23T00:51:42.277Z,44.13
2018-11-23T00:54:46.689Z,37.30
2018-11-23T00:57:51.177Z,37.05
2018-11-23T01:00:55.660Z,44.75
2018-11-23T01:04:00.207Z,35.55
2018-11-23T01:07:05.474Z,31.93
2018-11-23T01:10:11.909Z,37.70
2018-11-23T01:13:16.850Z,38.48
2018-11-23T01:16:21.544Z,39.95
2018-11-23T01:19:25.992Z,38.17
2018-11-23T01:22:30.515Z,28.47
2018-11-23T01:25:35.090Z,30.95
2018-11-23T01:28:39.592Z,28.40
2018-11-23T01:31:44.711Z,27.77
2018-11-23T01:34:49.158Z,25.17
2018-11-23T01:37:53.560Z,30.30
2018-11-23T01:40:58.187Z,33.88
2018-11-23T01:44:02.869Z,29.15
2018-11-23T01:47:07.334Z,26.57
2018-11-23T01:50:15.357Z,27.45
2018-11-23T01:53:20.818Z,31.33
2018-11-23T01:56:25.626Z,30.23
2018-11-23T01:59:30.197Z,29.02
2018-11-23T02:02:34.547Z,23.57
2018-11-23T02:05:39.104Z,29.48
2018-11-23T02:08:43.718Z,26.40
2018-11-23T02:11:48.225Z,23.30
2018-11-23T02:14:53.395Z,26.82
2018-11-23T02:17:58.000Z,24.37
2018-11-23T02:21:02.321Z,20.17
2018-11-23T02:24:06.753Z,20.57
2018-11-23T02:27:11.122Z,18.98
2018-11-23T02:30:17.956Z,29.85
2018-11-23T02:33:22.588Z,34.25
2018-11-23T02:36:27.777Z,25.08
2018-11-23T02:39:32.377Z,23.30
2018-11-23T02:42:37.352Z,19.30
2018-11-23T02:45:41.818Z,24.40
2018-11-23T02:48:46.370Z,30.02
2018-11-23T02:51:50.832Z,27.95
2018-11-23T02:54:55.322Z,42.10
2018-11-23T02:58:00.341Z,30.12
2018-11-23T03:01:05.053Z,31.37
2018-11-23T03:04:10.704Z,22.50
2018-11-23T03:07:15.037Z,21.87
2018-11-23T03:10:19.711Z,24.10
2018-11-23T03:13:24.193Z,20.12
2018-11-23T03:16:28.494Z,29.57
2018-11-23T03:19:33.764Z,24.80
2018-11-23T03:22:38.142Z,18.50
2018-11-23T03:25:42.436Z,22.52
2018-11-23T03:28:46.693Z,29.45
2018-11-23T03:31:51.035Z,21.10
2018-11-23T03:34:55.271Z,22.13
2018-11-23T03:37:59.624Z,17.10
2018-11-23T03:41:04.230Z,19.87
2018-11-23T03:44:08.585Z,26.57
2018-11-23T03:47:12.857Z,25.32
2018-11-23T03:50:17.774Z,30.90
2018-11-23T03:53:21.976Z,22.70
2018-11-23T03:56:26.327Z,22.60
2018-11-23T03:59:30.627Z,32.65
2018-11-23T04:02:34.844Z,20.05
2018-11-23T04:05:39.257Z,30.82
2018-11-23T04:08:43.443Z,22.27
2018-11-23T04:11:47.604Z,17.32
2018-11-23T04:14:51.747Z,16.57
2018-11-23T04:17:55.905Z,14.05
2018-11-23T04:21:01.157Z,16.05
2018-11-23T04:24:05.547Z,24.45
2018-11-23T04:27:09.676Z,16.05
2018-11-23T04:30:15.765Z,16.80
2018-11-23T04:33:20.010Z,16.40
2018-11-23T04:36:24.331Z,26.60
2018-11-23T04:39:28.488Z,15.38
2018-11-23T04:42:32.761Z,20.55
2018-11-23T04:45:36.921Z,16.00
2018-11-23T04:48:41.294Z,20.97
2018-11-23T04:51:45.754Z,19.87
2018-11-23T04:54:49.933Z,27.17
2018-11-23T04:57:54.150Z,17.60
2018-11-23T05:00:58.419Z,21.93
2018-11-23T05:04:02.795Z,24.57
2018-11-23T05:07:07.411Z,20.48
2018-11-23T05:10:13.361Z,12.55
2018-11-23T05:13:17.581Z,20.75
2018-11-23T05:16:22.670Z,25.77
2018-11-23T05:19:26.937Z,20.95
2018-11-23T05:22:31.479Z,20.10
2018-11-23T05:25:35.859Z,39.30
2018-11-23T05:28:40.046Z,27.60
2018-11-23T05:31:44.471Z,23.95
2018-11-23T05:34:48.738Z,28.42
2018-11-23T05:37:53.715Z,36.20
2018-11-23T05:40:57.980Z,16.73
2018-11-23T05:44:02.207Z,22.70
2018-11-23T05:47:07.321Z,53.00
2018-11-23T05:50:17.238Z,29.98
2018-11-23T05:53:21.436Z,34.15
2018-11-23T05:56:26.392Z,23.95
2018-11-23T05:59:30.593Z,17.17
2018-11-23T06:02:34.753Z,34.78
2018-11-23T06:05:39.122Z,21.95
2018-11-23T06:08:43.351Z,23.62
2018-11-23T06:11:47.545Z,17.27
2018-11-23T06:14:52.025Z,40.73
2018-11-23T06:17:56.555Z,15.58
2018-11-23T06:21:01.120Z,16.35
2018-11-23T06:24:06.094Z,19.62
2018-11-23T06:27:10.530Z,33.78
2018-11-23T06:30:14.920Z,17.05
2018-11-23T06:33:42.403Z,22.25
2018-11-23T06:36:46.771Z,26.05
2018-11-23T06:39:51.099Z,18.17
2018-11-23T06:42:55.558Z,20.02
2018-11-23T06:46:01.160Z,22.67
2018-11-23T06:49:06.571Z,18.17
2018-11-23T06:52:11.156Z,21.15
2018-11-23T06:55:15.367Z,21.48
2018-11-23T06:58:19.719Z,20.60
2018-11-23T07:01:24.169Z,33.13
2018-11-23T07:04:28.614Z,30.52
2018-11-23T07:07:32.959Z,44.38
2018-11-23T07:10:37.921Z,39.90
2018-11-23T07:13:42.427Z,21.17
2018-11-23T07:16:46.845Z,34.63
2018-11-23T07:19:51.755Z,37.10
2018-11-23T07:22:56.182Z,41.60
2018-11-23T07:26:00.587Z,17.45
2018-11-23T07:29:05.450Z,27.82
2018-11-23T07:32:09.947Z,33.63
2018-11-23T07:35:15.745Z,15.35
2018-11-23T07:38:20.049Z,20.65
2018-11-23T07:41:35.526Z,15.78
2018-11-23T07:44:39.768Z,13.60
2018-11-23T07:47:44.801Z,16.23
2018-11-23T07:50:49.131Z,15.20
2018-11-23T07:53:53.972Z,16.07
2018-11-23T07:56:58.225Z,11.38
2018-11-23T08:00:02.556Z,11.57
2018-11-23T08:03:06.781Z,11.65
2018-11-23T08:06:11.454Z,11.40
2018-11-23T08:09:15.798Z,14.63
2018-11-23T08:12:20.872Z,17.70
2018-11-23T08:15:26.692Z,16.35
2018-11-23T08:18:31.271Z,15.20
2018-11-23T08:21:35.868Z,16.23
2018-11-23T08:24:40.411Z,16.17
2018-11-23T08:27:45.777Z,11.85
2018-11-23T08:30:51.285Z,13.80
2018-11-23T08:33:55.913Z,15.88
2018-11-23T08:37:00.581Z,15.48
2018-11-23T08:40:07.282Z,19.05
2018-11-23T08:43:11.635Z,17.40
2018-11-23T08:46:15.989Z,16.27
2018-11-23T08:49:20.240Z,15.23
2018-11-23T08:52:24.895Z,14.40
2018-11-23T08:55:29.560Z,17.12
2018-11-23T08:58:34.065Z,15.28
2018-11-23T09:01:38.435Z,12.55
2018-11-23T09:04:42.979Z,14.03
2018-11-23T09:07:48.346Z,15.18
2018-11-23T09:10:52.591Z,12.68
2018-11-23T09:13:57.120Z,13.40
2018-11-23T09:17:01.701Z,13.65
2018-11-23T09:20:07.607Z,15.55
2018-11-23T09:23:12.039Z,13.72
2018-11-23T09:26:16.413Z,19.32
2018-11-23T09:29:21.625Z,15.75
2018-11-23T09:32:25.852Z,12.70
2018-11-23T09:35:30.577Z,20.88
2018-11-23T09:38:35.011Z,15.15
2018-11-23T09:41:39.327Z,18.48
2018-11-23T09:44:43.773Z,21.70
2018-11-23T09:47:49.314Z,15.37
2018-11-23T09:50:53.691Z,19.40
2018-11-23T09:53:58.181Z,15.00
2018-11-23T09:57:08.995Z,20.20
2018-11-23T10:00:15.864Z,16.48
2018-11-23T10:03:20.211Z,16.07
2018-11-23T10:06:24.511Z,16.13
2018-11-23T10:09:28.980Z,30.53
2018-11-23T10:12:33.369Z,18.10
2018-11-23T10:15:37.919Z,26.83
2018-11-23T10:18:42.391Z,17.30
2018-11-23T10:21:46.614Z,22.87
2018-11-23T10:24:50.896Z,28.60
2018-11-23T10:27:55.462Z,20.07
2018-11-23T10:30:59.837Z,14.20
2018-11-23T10:34:04.120Z,14.27
2018-11-23T10:37:08.508Z,15.57
2018-11-23T10:40:16.132Z,12.87
2018-11-23T10:43:20.414Z,12.30
2018-11-23T10:46:24.476Z,16.70
2018-11-23T10:49:28.616Z,16.00
2018-11-23T10:52:33.201Z,17.10
2018-11-23T10:55:38.297Z,17.60
2018-11-23T10:58:42.483Z,15.23
2018-11-23T11:01:52.829Z,15.77
2018-11-23T11:05:02.237Z,21.13
2018-11-23T11:08:06.694Z,17.07
2018-11-23T11:11:13.761Z,18.67
2018-11-23T11:14:15.705Z,14.93
2018-11-23T11:17:20.328Z,16.90
2018-11-23T11:20:24.882Z,15.10
2018-11-23T11:23:29.458Z,21.30
2018-11-23T11:26:34.554Z,17.50
2018-11-23T11:29:38.914Z,16.97
2018-11-23T11:32:43.654Z,22.23
2018-11-23T11:35:51.791Z,23.63
2018-11-23T11:38:56.231Z,16.27
2018-11-23T11:42:00.656Z,18.50
2018-11-23T11:45:05.664Z,23.60
2018-11-23T11:48:09.810Z,21.77
2018-11-23T11:51:14.767Z,23.50
2018-11-23T11:54:18.899Z,21.73
2018-11-23T11:57:24.328Z,14.77
2018-11-23T12:00:29.013Z,18.03
2018-11-23T12:03:34.254Z,18.47
2018-11-23T12:06:39.038Z,24.73
2018-11-23T12:09:43.488Z,34.67
2018-11-23T12:12:47.974Z,29.67
2018-11-23T12:15:52.543Z,34.90
2018-11-23T12:18:57.572Z,29.03
2018-11-23T12:22:02.566Z,22.67
2018-11-23T12:25:07.174Z,26.10
2018-11-23T12:28:11.752Z,22.80
2018-11-23T12:31:16.176Z,26.23
2018-11-23T12:34:20.605Z,21.73
2018-11-23T12:37:25.168Z,19.73
2018-11-23T12:40:29.528Z,19.37
2018-11-23T12:43:34.112Z,19.73
2018-11-23T12:46:38.648Z,15.87
2018-11-23T12:49:43.057Z,17.77
2018-11-23T12:52:47.586Z,21.67
2018-11-23T12:55:52.103Z,19.63
2018-11-23T12:58:56.527Z,16.67
2018-11-23T13:02:01.067Z,23.20
2018-11-23T13:05:06.983Z,19.13
2018-11-23T13:08:11.596Z,23.67
2018-11-23T13:11:15.762Z,21.07
2018-11-23T13:14:20.781Z,19.47
2018-11-23T13:17:24.883Z,15.97
2018-11-23T13:20:29.164Z,18.43
2018-11-23T13:23:33.451Z,18.07
2018-11-23T13:26:38.531Z,19.47
2018-11-23T13:29:42.820Z,18.63
2018-11-23T13:32:46.984Z,22.90
2018-11-23T13:35:51.296Z,19.27
2018-11-23T13:38:55.542Z,20.90
2018-11-23T13:41:59.863Z,19.53
2018-11-23T13:45:04.218Z,16.67
2018-11-23T13:48:08.688Z,22.03
2018-11-23T13:51:13.995Z,24.07
2018-11-23T13:54:18.133Z,24.73
2018-11-23T13:57:22.799Z,21.60
2018-11-23T14:00:28.485Z,24.50
2018-11-23T14:03:32.702Z,22.23
2018-11-23T14:06:36.774Z,23.37
2018-11-23T14:09:42.027Z,22.57
2018-11-23T14:12:46.880Z,27.37
2018-11-23T14:15:51.579Z,25.80
2018-11-23T14:18:55.706Z,24.53
2018-11-23T14:22:00.574Z,31.90
2018-11-23T14:25:05.343Z,26.17
2018-11-23T14:28:10.437Z,24.53
2018-11-23T14:31:14.527Z,26.47
2018-11-23T14:34:19.735Z,23.73
2018-11-23T14:37:24.175Z,27.17
2018-11-23T14:40:28.192Z,26.10
2018-11-23T14:43:32.504Z,22.43
2018-11-23T14:46:36.726Z,62.97
2018-11-23T14:49:40.892Z,107.70
2018-11-23T14:52:47.377Z,23.77
2018-11-23T14:55:51.794Z,27.30
2018-11-23T14:58:56.073Z,28.33
2018-11-23T15:02:00.798Z,25.43
2018-11-23T15:05:05.417Z,32.93
2018-11-23T15:08:09.503Z,30.90
2018-11-23T15:11:13.683Z,41.37
2018-11-23T15:14:17.873Z,36.10
2018-11-23T15:17:22.391Z,30.03
2018-11-23T15:20:30.859Z,28.60
2018-11-23T15:23:35.241Z,32.57
2018-11-23T15:26:39.444Z,31.00
2018-11-23T15:29:44.326Z,24.90
2018-11-23T15:32:48.470Z,32.70
2018-11-23T15:35:53.416Z,23.93
2018-11-23T15:38:57.557Z,33.30
2018-11-23T15:42:02.458Z,22.43
2018-11-23T15:45:09.760Z,45.83
2018-11-23T15:48:14.130Z,28.00
2018-11-23T15:51:18.233Z,23.75
2018-11-23T15:54:22.580Z,28.00
2018-11-23T15:57:26.826Z,37.58
2018-11-23T16:00:32.564Z,31.12
2018-11-23T16:03:37.405Z,25.27
2018-11-23T16:06:41.502Z,24.15
2018-11-23T16:09:45.581Z,45.08
2018-11-23T16:12:53.162Z,26.85
2018-11-23T16:15:57.295Z,30.02
2018-11-23T16:19:02.172Z,21.48
2018-11-23T16:22:06.777Z,29.00
2018-11-23T16:25:12.363Z,28.73
2018-11-23T16:28:16.539Z,27.55
2018-11-23T16:31:20.904Z,25.43
2018-11-23T16:34:25.106Z,26.23
2018-11-23T16:37:29.705Z,29.07
2018-11-23T16:40:35.193Z,44.03
2018-11-23T16:43:40.106Z,50.03
2018-11-23T16:46:44.645Z,28.65
2018-11-23T16:49:48.866Z,24.80
2018-11-23T16:52:53.412Z,27.70
2018-11-23T16:55:58.133Z,21.17
2018-11-23T16:59:02.660Z,31.65
2018-11-23T17:02:06.844Z,33.95
2018-11-23T17:05:12.345Z,23.32
2018-11-23T17:08:16.679Z,30.10
2018-11-23T17:11:21.115Z,32.90
2018-11-23T17:14:25.233Z,20.15
2018-11-23T17:17:29.818Z,25.17
2018-11-23T17:20:34.692Z,27.67
2018-11-23T17:23:39.210Z,44.70
2018-11-23T17:26:43.294Z,19.27
2018-11-23T17:29:48.248Z,21.68
2018-11-23T17:32:52.463Z,19.32
2018-11-23T17:35:56.710Z,26.17
2018-11-23T17:39:01.321Z,26.05
2018-11-23T17:42:06.001Z,23.05
2018-11-23T17:45:12.253Z,22.98
2018-11-23T17:48:16.438Z,18.98
2018-11-23T17:51:21.912Z,18.85
2018-11-23T17:54:26.206Z,13.70
2018-11-23T17:57:30.493Z,20.62
2018-11-23T18:00:39.234Z,24.63
2018-11-23T18:03:40.368Z,22.50
2018-11-23T18:06:45.219Z,21.62
2018-11-23T18:09:49.352Z,21.20
2018-11-23T18:12:55.443Z,33.30
2018-11-23T18:16:06.217Z,24.98
2018-11-23T18:19:13.227Z,21.00
2018-11-23T18:22:17.432Z,32.75
2018-11-23T18:25:24.228Z,17.42
2018-11-23T18:28:29.064Z,18.55
2018-11-23T18:31:39.628Z,17.00
2018-11-23T18:34:43.719Z,15.95
2018-11-23T18:37:47.936Z,14.93
2018-11-23T18:40:52.592Z,14.95
2018-11-23T18:43:57.055Z,17.45
2018-11-23T18:47:02.325Z,19.95
2018-11-23T18:50:08.552Z,16.50
2018-11-23T18:53:12.638Z,19.30
2018-11-23T18:56:17.670Z,14.47
2018-11-23T18:59:21.960Z,16.55
2018-11-23T19:02:26.040Z,23.22
2018-11-23T19:05:30.653Z,17.23
2018-11-23T19:08:34.960Z,21.42
2018-11-23T19:11:39.077Z,18.55
2018-11-23T19:14:43.269Z,18.20
2018-11-23T19:17:47.428Z,26.52
2018-11-23T19:20:52.870Z,28.65
2018-11-23T19:23:57.192Z,23.42
2018-11-23T19:27:01.710Z,20.00
2018-11-23T19:30:08.369Z,17.62
2018-11-23T19:33:12.489Z,22.58
2018-11-23T19:36:17.188Z,20.70
2018-11-23T19:39:39.859Z,15.32
2018-11-23T19:42:45.180Z,20.32
2018-11-23T19:45:49.980Z,17.92
2018-11-23T19:48:54.333Z,15.58
2018-11-23T19:51:58.885Z,19.75
2018-11-23T19:55:05.545Z,19.42
2018-11-23T19:58:10.004Z,13.55
2018-11-23T20:01:14.592Z,13.62
2018-11-23T20:04:19.221Z,14.25
2018-11-23T20:07:23.543Z,15.48
2018-11-23T20:10:28.705Z,13.43
2018-11-23T20:13:33.575Z,16.23
2018-11-23T20:16:38.357Z,13.55
2018-11-23T20:19:42.664Z,18.02
2018-11-23T20:22:48.901Z,18.82
2018-11-23T20:25:53.658Z,20.10
2018-11-23T20:28:58.096Z,18.48
2018-11-23T20:32:02.666Z,15.45
2018-11-23T20:35:09.168Z,17.67
2018-11-23T20:38:13.794Z,10.75
2018-11-23T20:41:19.884Z,16.15
2018-11-23T20:44:24.266Z,15.53
2018-11-23T20:47:28.941Z,17.25
2018-11-23T20:50:33.623Z,15.98
2018-11-23T20:53:38.250Z,15.45
2018-11-23T20:56:42.650Z,16.77
2018-11-23T20:59:46.961Z,16.37
2018-11-23T21:02:52.988Z,17.30
2018-11-23T21:05:59.822Z,16.30
2018-11-23T21:09:06.702Z,16.77
2018-11-23T21:12:11.329Z,17.15
2018-11-23T21:15:21.881Z,16.77
2018-11-23T21:18:26.385Z,17.07
2018-11-23T21:21:30.968Z,19.60
2018-11-23T21:24:35.344Z,17.10
2018-11-23T21:27:39.967Z,15.58
2018-11-23T21:30:44.422Z,18.90
2018-11-23T21:33:49.577Z,17.48
2018-11-23T21:36:54.618Z,13.40
2018-11-23T21:40:00.792Z,14.60
2018-11-23T21:43:05.943Z,14.30
2018-11-23T21:46:10.439Z,14.28
2018-11-23T21:49:14.928Z,14.20
2018-11-23T21:52:19.420Z,13.20
2018-11-23T21:55:24.869Z,18.15
2018-11-23T21:58:29.257Z,13.53
2018-11-23T22:01:33.886Z,11.85
2018-11-23T22:04:38.648Z,18.05
2018-11-23T22:07:43.306Z,13.18
2018-11-23T22:10:47.862Z,23.12
2018-11-23T22:13:52.682Z,15.53
2018-11-23T22:16:58.240Z,13.88
2018-11-23T22:20:04.058Z,12.88
2018-11-23T22:23:08.696Z,11.30
2018-11-23T22:26:13.365Z,11.20
2018-11-23T22:29:17.919Z,15.03
2018-11-23T22:32:22.435Z,12.93
2018-11-23T22:35:27.665Z,12.65
2018-11-23T22:38:32.281Z,13.22
2018-11-23T22:41:37.147Z,12.73
2018-11-23T22:44:41.906Z,13.15
2018-11-23T22:47:46.204Z,13.45
2018-11-23T22:50:50.534Z,12.78
2018-11-23T22:53:54.914Z,13.00
2018-11-23T22:56:59.694Z,13.08
2018-11-23T23:00:06.949Z,12.33
2018-11-23T23:03:11.881Z,9.93
2018-11-23T23:06:16.417Z,13.58
2018-11-23T23:09:20.776Z,12.40
2018-11-23T23:12:25.380Z,20.50
2018-11-23T23:15:29.701Z,15.20
2018-11-23T23:18:34.551Z,12.43
2018-11-23T23:21:38.825Z,11.03
2018-11-23T23:24:49.561Z,18.12
2018-11-23T23:27:53.922Z,12.55
2018-11-23T23:30:58.287Z,15.10
2018-11-23T23:34:02.490Z,13.35
2018-11-23T23:37:06.859Z,16.10
2018-11-23T23:40:13.295Z,17.50
2018-11-23T23:43:17.950Z,10.70
2018-11-23T23:46:22.445Z,12.13
2018-11-23T23:49:26.607Z,12.68
2018-11-23T23:52:31.408Z,15.25
2018-11-23T23:55:35.703Z,14.87
2018-11-23T23:58:39.817Z,15.50
